createdAt,value
2018-05-10T00:00:54.709Z,33.80
2018-05-10T00:03:28.277Z,33.00
2018-05-10T00:06:01.737Z,33.37
2018-05-10T00:08:37.217Z,34.23
2018-05-10T00:11:13.108Z,33.40
2018-05-10T00:13:46.430Z,33.53
2018-05-10T00:16:21.526Z,37.30
2018-05-10T00:18:55.160Z,35.33
2018-05-10T00:21:30.086Z,34.33
2018-05-10T00:24:03.404Z,37.03
2018-05-10T00:26:37.554Z,33.83
2018-05-10T00:29:13.838Z,36.43
2018-05-10T00:31:47.842Z,34.43
2018-05-10T00:34:27.351Z,34.53
2018-05-10T00:37:04.432Z,33.13
2018-05-10T00:39:37.440Z,32.63
2018-05-10T00:42:10.581Z,33.63
2018-05-10T00:44:45.497Z,33.67
2018-05-10T00:47:21.782Z,33.33
2018-05-10T00:49:56.370Z,33.27
2018-05-10T00:52:36.192Z,33.10
2018-05-10T00:55:08.571Z,32.33
2018-05-10T00:57:40.769Z,31.93
2018-05-10T01:00:14.618Z,32.53
2018-05-10T01:02:50.730Z,32.00
2018-05-10T01:05:24.615Z,31.50
2018-05-10T01:07:58.980Z,33.20
2018-05-10T01:10:33.429Z,31.93
2018-05-10T01:13:06.245Z,30.60
2018-05-10T01:15:39.100Z,31.73
2018-05-10T01:18:12.765Z,31.70
2018-05-10T01:20:48.629Z,29.93
2018-05-10T01:23:21.754Z,32.87
2018-05-10T01:25:53.431Z,29.70
2018-05-10T01:28:27.353Z,31.83
2018-05-10T01:30:59.108Z,30.20
2018-05-10T01:33:32.140Z,30.80
2018-05-10T01:36:26.524Z,27.20
2018-05-10T01:38:58.375Z,27.23
2018-05-10T01:41:30.526Z,30.17
2018-05-10T01:44:02.118Z,28.50
2018-05-10T01:46:41.368Z,28.83
2018-05-10T01:49:12.675Z,25.93
2018-05-10T01:51:46.881Z,27.23
2018-05-10T01:54:22.599Z,28.27
2018-05-10T01:56:57.666Z,29.40
2018-05-10T01:59:30.839Z,27.07
2018-05-10T02:02:05.833Z,28.37
2018-05-10T02:04:37.988Z,34.70
2018-05-10T02:07:09.615Z,40.03
2018-05-10T02:09:42.922Z,35.07
2018-05-10T02:12:18.543Z,26.07
2018-05-10T02:14:51.251Z,27.87
2018-05-10T02:17:22.984Z,24.83
2018-05-10T02:19:56.794Z,26.80
2018-05-10T02:22:30.353Z,24.07
2018-05-10T02:25:03.045Z,23.60
2018-05-10T02:27:36.993Z,23.30
2018-05-10T02:30:08.770Z,22.77
2018-05-10T02:32:40.835Z,24.70
2018-05-10T02:35:13.051Z,21.47
2018-05-10T02:37:46.238Z,23.30
2018-05-10T02:40:18.482Z,20.87
2018-05-10T02:42:51.220Z,21.20
2018-05-10T02:45:24.300Z,19.40
2018-05-10T02:47:55.734Z,17.10
2018-05-10T02:50:29.478Z,17.47
2018-05-10T02:53:04.707Z,18.60
2018-05-10T02:55:37.029Z,18.30
2018-05-10T02:58:11.016Z,19.03
2018-05-10T03:00:43.141Z,17.40
2018-05-10T03:03:15.443Z,15.53
2018-05-10T03:05:46.833Z,14.60
2018-05-10T03:08:19.469Z,17.03
2018-05-10T03:10:52.457Z,15.27
2018-05-10T03:13:24.258Z,14.17
2018-05-10T03:15:58.021Z,16.53
2018-05-10T03:18:29.449Z,14.70
2018-05-10T03:21:01.228Z,27.20
2018-05-10T03:23:32.670Z,22.03
2018-05-10T03:26:04.048Z,14.70
2018-05-10T03:28:36.312Z,14.63
2018-05-10T03:31:07.865Z,15.03
2018-05-10T03:33:39.936Z,14.30
2018-05-10T03:36:13.642Z,13.50
2018-05-10T03:38:47.986Z,13.93
2018-05-10T03:41:21.003Z,14.73
2018-05-10T03:43:54.235Z,16.23
2018-05-10T03:46:26.408Z,18.07
2018-05-10T03:48:58.074Z,15.47
2018-05-10T03:51:30.046Z,15.50
2018-05-10T03:54:01.864Z,16.13
2018-05-10T03:56:35.047Z,18.50
2018-05-10T03:59:06.895Z,17.27
2018-05-10T04:01:39.170Z,17.27
2018-05-10T04:04:41.937Z,19.10
2018-05-10T04:10:47.013Z,19.53
2018-05-10T04:13:19.316Z,20.03
2018-05-10T04:15:52.289Z,22.23
2018-05-10T04:18:23.658Z,21.00
2018-05-10T04:20:55.851Z,20.30
2018-05-10T04:23:28.010Z,20.40
2018-05-10T04:26:00.919Z,19.30
2018-05-10T04:28:32.298Z,21.63
2018-05-10T04:31:03.710Z,19.10
2018-05-10T04:33:35.113Z,20.33
2018-05-10T04:36:06.856Z,19.67
2018-05-10T04:38:38.005Z,20.27
2018-05-10T04:41:09.495Z,19.73
2018-05-10T04:43:40.890Z,18.27
2018-05-10T04:46:12.614Z,17.17
2018-05-10T04:48:43.994Z,17.57
2018-05-10T04:51:15.494Z,20.80
2018-05-10T04:53:47.292Z,18.43
2018-05-10T04:56:18.882Z,16.57
2018-05-10T04:58:50.397Z,20.23
2018-05-10T05:01:21.793Z,21.10
2018-05-10T05:03:53.219Z,18.23
2018-05-10T05:06:24.946Z,18.67
2018-05-10T05:08:57.266Z,18.07
2018-05-10T05:11:28.837Z,17.00
2018-05-10T05:14:00.247Z,17.63
2018-05-10T05:16:31.624Z,19.77
2018-05-10T05:19:04.009Z,19.87
2018-05-10T05:21:36.933Z,19.23
2018-05-10T05:24:08.587Z,17.53
2018-05-10T05:26:40.232Z,17.20
2018-05-10T05:29:11.859Z,18.47
2018-05-10T05:31:43.815Z,17.83
2018-05-10T05:34:15.456Z,17.83
2018-05-10T05:36:46.844Z,16.03
2018-05-10T05:39:18.217Z,17.60
2018-05-10T05:41:49.632Z,15.73
2018-05-10T05:44:21.290Z,15.10
2018-05-10T05:46:52.707Z,14.07
2018-05-10T05:49:24.247Z,13.77
2018-05-10T05:51:55.810Z,15.47
2018-05-10T05:54:27.197Z,15.47
2018-05-10T05:56:58.813Z,16.43
2018-05-10T05:59:30.191Z,14.03
2018-05-10T06:02:01.587Z,13.97
2018-05-10T06:04:33.842Z,14.70
2018-05-10T06:07:06.148Z,12.47
2018-05-10T06:09:37.555Z,14.33
2018-05-10T06:12:09.009Z,16.70
2018-05-10T06:14:40.485Z,14.40
2018-05-10T06:17:11.899Z,14.50
2018-05-10T06:19:43.373Z,14.17
2018-05-10T06:22:14.769Z,15.93
2018-05-10T06:24:46.446Z,13.23
2018-05-10T06:27:17.988Z,13.90
2018-05-10T06:29:49.447Z,14.20
2018-05-10T06:32:21.991Z,11.87
2018-05-10T06:34:54.866Z,13.00
2018-05-10T06:37:27.001Z,11.53
2018-05-10T06:39:58.427Z,12.57
2018-05-10T06:42:29.808Z,11.90
2018-05-10T06:45:01.349Z,12.23
2018-05-10T06:47:32.699Z,12.00
2018-05-10T06:50:05.067Z,13.00
2018-05-10T06:52:36.466Z,12.13
2018-05-10T06:55:07.882Z,10.67
2018-05-10T06:57:39.429Z,12.60
2018-05-10T07:00:10.903Z,11.63
2018-05-10T07:02:42.317Z,8.70
2018-05-10T07:05:13.637Z,11.97
2018-05-10T07:07:45.892Z,10.93
2018-05-10T07:10:17.275Z,8.90
2018-05-10T07:12:48.907Z,9.00
2018-05-10T07:15:20.283Z,8.17
2018-05-10T07:17:52.441Z,8.77
2018-05-10T07:20:24.612Z,10.30
2018-05-10T07:22:56.756Z,9.97
2018-05-10T07:25:28.148Z,8.97
2018-05-10T07:27:59.991Z,9.83
2018-05-10T07:30:32.170Z,7.70
2018-05-10T07:33:03.650Z,8.53
2018-05-10T07:35:36.094Z,8.70
2018-05-10T07:38:07.922Z,9.17
2018-05-10T07:40:39.390Z,7.30
2018-05-10T07:43:10.857Z,8.70
2018-05-10T07:45:42.571Z,8.50
2018-05-10T07:48:14.072Z,8.63
2018-05-10T07:50:46.235Z,9.33
2018-05-10T07:53:18.499Z,6.97
2018-05-10T07:55:50.844Z,8.13
2018-05-10T07:58:23.000Z,8.17
2018-05-10T08:00:54.414Z,9.50
2018-05-10T08:03:26.741Z,8.63
2018-05-10T08:05:58.439Z,9.07
2018-05-10T08:08:29.894Z,14.07
2018-05-10T08:11:02.075Z,11.10
2018-05-10T08:13:33.463Z,11.73
2018-05-10T08:16:04.612Z,8.23
2018-05-10T08:18:36.004Z,8.80
2018-05-10T08:21:07.567Z,9.70
2018-05-10T08:23:49.176Z,10.37
2018-05-10T08:26:20.545Z,10.17
2018-05-10T08:28:51.999Z,10.30
2018-05-10T08:31:23.611Z,13.07
2018-05-10T08:33:55.814Z,11.53
2018-05-10T08:36:27.294Z,11.63
2018-05-10T08:39:00.525Z,11.27
2018-05-10T08:41:32.760Z,10.27
2018-05-10T08:44:05.082Z,11.47
2018-05-10T08:46:36.457Z,12.73
2018-05-10T08:49:07.898Z,13.77
2018-05-10T08:51:39.452Z,12.80
2018-05-10T08:54:11.042Z,12.60
2018-05-10T08:56:42.630Z,8.77
2018-05-10T08:59:14.090Z,8.63
2018-05-10T09:01:45.489Z,10.67
2018-05-10T09:04:16.903Z,12.00
2018-05-10T09:06:48.556Z,8.20
2018-05-10T09:09:20.947Z,7.97
2018-05-10T09:11:52.372Z,6.93
2018-05-10T09:14:24.750Z,7.40
2018-05-10T09:16:56.159Z,5.93
2018-05-10T09:19:27.553Z,6.00
2018-05-10T09:21:59.751Z,5.67
2018-05-10T09:24:31.171Z,3.33
2018-05-10T09:27:03.401Z,2.60
2018-05-10T09:29:35.150Z,3.87
2018-05-10T09:32:06.564Z,4.47
2018-05-10T09:34:38.114Z,5.03
2018-05-10T09:37:09.510Z,4.20
2018-05-10T09:39:41.141Z,5.33
2018-05-10T09:42:12.515Z,6.40
2018-05-10T09:44:44.043Z,6.93
2018-05-10T09:47:15.438Z,5.53
2018-05-10T09:49:47.664Z,5.60
2018-05-10T09:52:19.404Z,6.17
2018-05-10T09:54:51.418Z,6.33
2018-05-10T09:57:22.887Z,6.30
2018-05-10T09:59:55.147Z,4.93
2018-05-10T10:02:27.129Z,3.50
2018-05-10T10:04:58.523Z,2.83
2018-05-10T10:07:29.985Z,3.63
2018-05-10T10:10:01.399Z,4.63
2018-05-10T10:12:32.836Z,3.47
2018-05-10T10:15:05.062Z,4.07
2018-05-10T10:17:36.184Z,3.83
2018-05-10T10:20:08.945Z,2.03
2018-05-10T10:22:40.327Z,2.70
2018-05-10T10:25:11.858Z,5.77
2018-05-10T10:27:43.469Z,4.50
2018-05-10T10:30:15.207Z,5.30
2018-05-10T10:32:46.907Z,6.40
2018-05-10T10:35:19.212Z,6.40
2018-05-10T10:37:51.064Z,5.47
2018-05-10T10:40:22.482Z,7.73
2018-05-10T10:42:54.020Z,6.97
2018-05-10T10:45:26.275Z,8.03
2018-05-10T10:47:57.910Z,6.63
2018-05-10T10:50:29.324Z,8.73
2018-05-10T10:53:01.276Z,6.57
2018-05-10T10:55:32.792Z,10.33
2018-05-10T10:58:04.251Z,7.57
2018-05-10T11:00:35.651Z,7.70
2018-05-10T11:03:07.117Z,7.93
2018-05-10T11:05:39.464Z,8.77
2018-05-10T11:08:11.016Z,7.93
2018-05-10T11:10:43.233Z,10.90
2018-05-10T11:13:15.694Z,12.00
2018-05-10T11:15:47.159Z,9.33
2018-05-10T11:18:18.617Z,10.13
2018-05-10T11:20:50.081Z,12.90
2018-05-10T11:23:21.721Z,12.70
2018-05-10T11:25:53.153Z,12.47
2018-05-10T11:28:24.819Z,12.73
2018-05-10T11:30:57.070Z,13.73
2018-05-10T11:33:29.327Z,12.90
2018-05-10T11:36:00.745Z,16.20
2018-05-10T11:38:32.449Z,14.87
2018-05-10T11:41:03.958Z,13.93
2018-05-10T11:43:36.003Z,12.47
2018-05-10T11:46:07.144Z,16.57
2018-05-10T11:48:38.705Z,16.80
2018-05-10T11:51:10.268Z,13.50
2018-05-10T11:53:41.728Z,15.37
2018-05-10T11:56:13.107Z,18.53
2018-05-10T11:58:44.629Z,21.93
2018-05-10T12:01:16.038Z,15.40
2018-05-10T12:03:47.487Z,17.10
2018-05-10T12:06:18.942Z,17.00
2018-05-10T12:08:50.496Z,17.83
2018-05-10T12:11:21.968Z,20.00
2018-05-10T12:13:53.414Z,19.37
2018-05-10T12:16:24.890Z,18.07
2018-05-10T12:18:57.057Z,17.43
2018-05-10T12:21:28.459Z,20.77
2018-05-10T12:24:00.685Z,17.60
2018-05-10T12:26:32.292Z,16.17
2018-05-10T12:29:03.781Z,18.87
2018-05-10T12:31:36.011Z,20.03
2018-05-10T12:34:07.535Z,20.23
2018-05-10T12:36:39.319Z,18.37
2018-05-10T12:39:10.808Z,19.87
2018-05-10T12:41:42.322Z,20.03
2018-05-10T12:44:13.868Z,18.33
2018-05-10T12:46:46.137Z,19.67
2018-05-10T12:49:17.582Z,24.33
2018-05-10T12:51:49.022Z,17.03
2018-05-10T12:54:20.474Z,20.63
2018-05-10T12:56:51.866Z,19.63
2018-05-10T12:59:23.306Z,16.83
2018-05-10T13:01:55.525Z,20.90
2018-05-10T13:04:27.272Z,18.43
2018-05-10T13:06:58.747Z,22.00
2018-05-10T13:09:30.137Z,19.77
2018-05-10T13:12:02.379Z,21.63
2018-05-10T13:14:34.599Z,18.87
2018-05-10T13:17:06.128Z,18.30
2018-05-10T13:19:38.328Z,19.33
2018-05-10T13:22:09.699Z,18.97
2018-05-10T13:24:41.154Z,15.77
2018-05-10T13:27:12.749Z,20.40
2018-05-10T13:29:44.408Z,18.07
2018-05-10T13:32:15.944Z,18.50
2018-05-10T13:34:48.701Z,18.97
2018-05-10T13:37:21.935Z,17.13
2018-05-10T13:39:53.608Z,17.23
2018-05-10T13:42:25.824Z,19.07
2018-05-10T13:44:57.452Z,22.97
2018-05-10T13:47:29.942Z,18.93
2018-05-10T13:50:01.662Z,19.93
2018-05-10T13:52:34.258Z,18.03
2018-05-10T13:55:05.136Z,24.80
2018-05-10T13:57:36.575Z,19.83
2018-05-10T14:00:09.292Z,21.60
2018-05-10T14:02:40.910Z,17.97
2018-05-10T14:05:13.359Z,21.63
2018-05-10T14:07:45.559Z,23.53
2018-05-10T14:10:16.969Z,19.83
2018-05-10T14:12:48.659Z,23.17
2018-05-10T14:15:20.076Z,20.60
2018-05-10T14:17:52.314Z,20.80
2018-05-10T14:20:23.770Z,19.90
2018-05-10T14:22:55.525Z,22.97
2018-05-10T14:25:27.078Z,25.27
2018-05-10T14:27:58.620Z,22.57
2018-05-10T14:30:30.077Z,18.57
2018-05-10T14:33:01.882Z,20.80
2018-05-10T14:35:33.607Z,21.23
2018-05-10T14:38:05.283Z,17.70
2018-05-10T14:40:36.715Z,17.83
2018-05-10T14:43:08.379Z,15.87
2018-05-10T14:45:39.691Z,19.10
2018-05-10T14:48:11.091Z,17.40
2018-05-10T14:50:42.547Z,14.37
2018-05-10T14:53:14.030Z,14.80
2018-05-10T14:55:46.203Z,14.00
2018-05-10T14:58:18.352Z,14.03
2018-05-10T15:00:51.746Z,12.07
2018-05-10T15:03:23.960Z,13.77
2018-05-10T15:05:55.536Z,11.50
2018-05-10T15:08:27.148Z,11.90
2018-05-10T15:10:59.358Z,10.60
2018-05-10T15:13:31.127Z,10.73
2018-05-10T15:16:03.693Z,9.93
2018-05-10T15:18:35.137Z,7.93
2018-05-10T15:21:06.719Z,9.27
2018-05-10T15:23:38.906Z,8.17
2018-05-10T15:26:10.269Z,10.57
2018-05-10T15:28:41.860Z,9.23
2018-05-10T15:31:13.332Z,8.13
2018-05-10T15:33:44.949Z,5.30
2018-05-10T15:36:16.564Z,7.30
2018-05-10T15:38:47.953Z,9.00
2018-05-10T15:41:20.176Z,8.50
2018-05-10T15:43:51.712Z,6.23
2018-05-10T15:46:23.198Z,6.57
2018-05-10T15:48:54.629Z,5.43
2018-05-10T15:51:26.063Z,5.83
2018-05-10T15:53:57.509Z,4.77
2018-05-10T15:56:28.884Z,6.97
2018-05-10T15:59:00.621Z,5.30
2018-05-10T16:01:32.976Z,6.43
2018-05-10T16:04:04.470Z,9.63
2018-05-10T16:06:36.292Z,6.53
2018-05-10T16:09:07.854Z,10.60
2018-05-10T16:11:39.502Z,6.27
2018-05-10T16:14:10.945Z,9.53
2018-05-10T16:16:42.372Z,7.20
2018-05-10T16:19:13.872Z,6.17
2018-05-10T16:21:45.548Z,11.37
2018-05-10T16:24:16.955Z,5.37
2018-05-10T16:26:48.343Z,7.40
2018-05-10T16:29:20.578Z,7.63
2018-05-10T16:31:52.035Z,5.30
2018-05-10T16:34:24.999Z,5.20
2018-05-10T16:36:57.436Z,5.73
2018-05-10T16:39:28.805Z,4.93
2018-05-10T16:42:00.679Z,6.83
2018-05-10T16:44:33.285Z,11.10
2018-05-10T16:47:04.368Z,6.73
2018-05-10T16:49:35.733Z,3.27
2018-05-10T16:52:07.134Z,6.33
2018-05-10T16:54:39.653Z,3.67
2018-05-10T16:57:11.092Z,4.33
2018-05-10T16:59:42.515Z,5.80
2018-05-10T17:02:14.659Z,7.47
2018-05-10T17:04:46.377Z,3.07
2018-05-10T17:07:17.864Z,5.00
2018-05-10T17:09:49.730Z,4.40
2018-05-10T17:12:21.903Z,5.83
2018-05-10T17:14:54.374Z,4.20
2018-05-10T17:17:25.743Z,5.63
2018-05-10T17:19:57.910Z,5.23
2018-05-10T17:22:30.114Z,2.60
2018-05-10T17:25:01.679Z,4.90
2018-05-10T17:27:33.078Z,7.50
2018-05-10T17:30:03.978Z,7.50
2018-05-10T17:32:36.255Z,7.33
2018-05-10T17:35:08.578Z,5.27
2018-05-10T17:37:40.795Z,8.33
2018-05-10T17:40:12.240Z,5.20
2018-05-10T17:42:43.708Z,8.53
2018-05-10T17:45:15.161Z,6.00
2018-05-10T17:47:47.022Z,5.33
2018-05-10T17:50:18.449Z,5.43
2018-05-10T17:52:49.875Z,4.97
2018-05-10T17:55:21.410Z,5.00
2018-05-10T17:57:53.152Z,5.53
2018-05-10T18:00:24.625Z,3.77
2018-05-10T18:02:57.497Z,5.03
2018-05-10T18:05:28.905Z,4.77
2018-05-10T18:08:00.369Z,3.47
2018-05-10T18:10:31.867Z,5.50
2018-05-10T18:13:03.576Z,4.27
2018-05-10T18:15:35.076Z,3.77
2018-05-10T18:18:08.029Z,4.20
2018-05-10T18:20:39.436Z,3.87
2018-05-10T18:23:10.929Z,3.30
2018-05-10T18:25:42.484Z,4.73
2018-05-10T18:28:13.914Z,3.50
2018-05-10T18:30:45.300Z,3.97
2018-05-10T18:33:16.746Z,4.30
2018-05-10T18:35:48.352Z,2.83
2018-05-10T18:38:20.551Z,4.00
2018-05-10T18:40:52.129Z,2.63
2018-05-10T18:43:24.489Z,4.80
2018-05-10T18:45:55.908Z,4.97
2018-05-10T18:48:28.504Z,3.87
2018-05-10T18:50:59.864Z,4.70
2018-05-10T18:53:30.930Z,5.07
2018-05-10T18:56:02.356Z,4.20
2018-05-10T18:58:33.833Z,3.83
2018-05-10T19:01:04.986Z,2.87
2018-05-10T19:03:37.970Z,3.40
2018-05-10T19:06:09.466Z,2.73
2018-05-10T19:08:41.352Z,2.43
2018-05-10T19:11:12.746Z,2.73
2018-05-10T19:13:44.933Z,2.10
2018-05-10T19:16:17.149Z,2.57
2018-05-10T19:18:51.959Z,3.77
2018-05-10T19:21:26.709Z,2.23
2018-05-10T19:24:02.281Z,3.53
2018-05-10T19:26:37.569Z,2.43
2018-05-10T19:29:13.438Z,2.10
2018-05-10T19:31:46.205Z,2.57
2018-05-10T19:34:18.504Z,2.47
2018-05-10T19:36:50.662Z,2.77
2018-05-10T19:39:22.624Z,3.23
2018-05-10T19:41:55.430Z,5.17
2018-05-10T19:44:28.803Z,3.37
2018-05-10T19:47:02.117Z,4.03
2018-05-10T19:49:34.291Z,2.97
2018-05-10T19:52:07.179Z,3.13
2018-05-10T19:54:41.485Z,2.87
2018-05-10T19:57:17.467Z,2.63
2018-05-10T19:59:52.883Z,2.50
2018-05-10T20:02:26.290Z,2.00
2018-05-10T20:05:01.435Z,3.07
2018-05-10T20:07:37.172Z,2.40
2018-05-10T20:10:10.054Z,3.00
2018-05-10T20:12:43.044Z,3.17
2018-05-10T20:15:15.313Z,3.40
2018-05-10T20:17:48.201Z,2.43
2018-05-10T20:20:20.469Z,4.23
2018-05-10T20:22:56.626Z,2.07
2018-05-10T20:25:30.033Z,2.20
2018-05-10T20:28:03.151Z,2.13
2018-05-10T20:30:37.357Z,4.20
2018-05-10T20:33:14.010Z,2.97
2018-05-10T20:35:54.679Z,2.63
2018-05-10T20:38:28.340Z,2.23
2018-05-10T20:40:59.785Z,2.90
2018-05-10T20:43:31.210Z,3.07
2018-05-10T20:46:02.634Z,2.50
2018-05-10T20:48:34.780Z,6.00
2018-05-10T20:51:06.163Z,2.87
2018-05-10T20:53:37.583Z,2.13
2018-05-10T20:56:09.707Z,2.60
2018-05-10T20:58:41.103Z,6.30
2018-05-10T21:01:12.490Z,5.37
2018-05-10T21:03:44.002Z,3.27
2018-05-10T21:06:15.554Z,3.80
2018-05-10T21:08:46.978Z,3.70
2018-05-10T21:11:18.793Z,2.90
2018-05-10T21:13:49.824Z,4.43
2018-05-10T21:16:21.383Z,4.57
2018-05-10T21:18:52.935Z,3.93
2018-05-10T21:21:24.328Z,3.87
2018-05-10T21:23:55.774Z,4.57
2018-05-10T21:26:27.147Z,5.30
2018-05-10T21:28:58.575Z,3.83
2018-05-10T21:31:29.974Z,3.17
2018-05-10T21:34:01.415Z,5.83
2018-05-10T21:36:33.047Z,3.83
2018-05-10T21:39:03.582Z,4.57
2018-05-10T21:41:34.974Z,4.50
2018-05-10T21:44:06.553Z,5.73
2018-05-10T21:46:38.596Z,4.23
2018-05-10T21:49:26.443Z,4.70
2018-05-10T21:51:58.710Z,4.17
2018-05-10T21:54:30.084Z,4.57
2018-05-10T21:57:01.566Z,3.70
2018-05-10T21:59:33.722Z,3.63
2018-05-10T22:02:04.455Z,6.97
2018-05-10T22:04:36.036Z,5.07
2018-05-10T22:07:07.121Z,7.27
2018-05-10T22:09:38.507Z,3.77
2018-05-10T22:12:09.982Z,4.97
2018-05-10T22:14:42.337Z,3.70
2018-05-10T22:17:14.521Z,4.03
2018-05-10T22:19:46.728Z,4.07
2018-05-10T22:22:18.124Z,6.43
2018-05-10T22:24:49.618Z,6.50
2018-05-10T22:27:21.038Z,5.30
2018-05-10T22:29:52.503Z,5.30
2018-05-10T22:32:24.101Z,5.87
2018-05-10T22:34:55.814Z,5.37
2018-05-10T22:37:26.957Z,3.67
2018-05-10T22:39:58.869Z,5.93
2018-05-10T22:42:30.282Z,3.80
2018-05-10T22:45:01.886Z,5.33
2018-05-10T22:47:33.287Z,4.60
2018-05-10T22:50:04.373Z,4.80
2018-05-10T22:52:36.559Z,4.13
2018-05-10T22:55:08.731Z,4.17
2018-05-10T22:57:40.161Z,4.70
2018-05-10T23:00:10.556Z,4.50
2018-05-10T23:02:41.968Z,4.27
2018-05-10T23:05:14.091Z,6.47
2018-05-10T23:07:45.688Z,5.30
2018-05-10T23:10:17.903Z,5.07
2018-05-10T23:12:49.310Z,6.67
2018-05-10T23:15:21.836Z,6.70
2018-05-10T23:17:53.310Z,5.43
2018-05-10T23:20:24.728Z,5.13
2018-05-10T23:22:56.142Z,5.40
2018-05-10T23:25:27.670Z,6.60
2018-05-10T23:27:58.956Z,5.13
2018-05-10T23:30:31.450Z,5.80
2018-05-10T23:33:03.884Z,6.53
2018-05-10T23:35:35.314Z,6.53
2018-05-10T23:38:06.861Z,5.63
2018-05-10T23:40:38.548Z,7.00
2018-05-10T23:43:09.950Z,6.43
2018-05-10T23:45:41.406Z,6.67
2018-05-10T23:48:13.059Z,5.40
2018-05-10T23:50:44.771Z,6.77
2018-05-10T23:53:16.218Z,4.93
2018-05-10T23:55:48.035Z,12.00
2018-05-10T23:58:19.630Z,7.03
